sensor_id;sensor_type;location;lat;lon;timestamp;temperature;humidity
14723;DHT22;7452;55.594;12.986;2023-02-28T00:02:19;4.60;99.90
14723;DHT22;7452;55.594;12.986;2023-02-28T00:04:46;4.60;99.90
14723;DHT22;7452;55.594;12.986;2023-02-28T00:07:29;4.70;99.90
14723;DHT22;7452;55.594;12.986;2023-02-28T00:09:58;4.70;99.90
14723;DHT22;7452;55.594;12.986;2023-02-28T00:12:26;4.70;99.90
14723;DHT22;7452;55.594;12.986;2023-02-28T00:14:53;4.70;99.90
14723;DHT22;7452;55.594;12.986;2023-02-28T00:17:28;4.70;99.90
14723;DHT22;7452;55.594;12.986;2023-02-28T00:19:58;4.70;99.90
14723;DHT22;7452;55.594;12.986;2023-02-28T00:22:30;4.70;99.90
14723;DHT22;7452;55.594;12.986;2023-02-28T00:24:59;4.70;99.90
14723;DHT22;7452;55.594;12.986;2023-02-28T00:27:27;4.60;99.90
14723;DHT22;7452;55.594;12.986;2023-02-28T00:29:54;4.60;99.90
14723;DHT22;7452;55.594;12.986;2023-02-28T00:32:22;4.60;99.90
14723;DHT22;7452;55.594;12.986;2023-02-28T00:34:58;4.60;99.90
14723;DHT22;7452;55.594;12.986;2023-02-28T00:37:26;4.60;99.90
14723;DHT22;7452;55.594;12.986;2023-02-28T00:39:54;4.60;99.90
14723;DHT22;7452;55.594;12.986;2023-02-28T00:42:22;4.60;99.90
14723;DHT22;7452;55.594;12.986;2023-02-28T00:44:50;4.60;99.90
14723;DHT22;7452;55.594;12.986;2023-02-28T00:47:17;4.60;99.90
14723;DHT22;7452;55.594;12.986;2023-02-28T00:49:46;4.60;99.90
14723;DHT22;7452;55.594;12.986;2023-02-28T00:52:17;4.60;99.90
14723;DHT22;7452;55.594;12.986;2023-02-28T00:54:45;4.60;99.90
14723;DHT22;7452;55.594;12.986;2023-02-28T00:57:12;4.50;99.90
14723;DHT22;7452;55.594;12.986;2023-02-28T00:59:40;4.50;99.90
14723;DHT22;7452;55.594;12.986;2023-02-28T01:02:08;4.50;99.90
14723;DHT22;7452;55.594;12.986;2023-02-28T01:04:39;4.40;99.90
14723;DHT22;7452;55.594;12.986;2023-02-28T01:07:07;4.50;99.90
14723;DHT22;7452;55.594;12.986;2023-02-28T01:09:35;4.40;99.90
14723;DHT22;7452;55.594;12.986;2023-02-28T01:12:04;4.40;99.90
14723;DHT22;7452;55.594;12.986;2023-02-28T01:14:31;4.40;99.90
14723;DHT22;7452;55.594;12.986;2023-02-28T01:16:58;4.40;99.90
14723;DHT22;7452;55.594;12.986;2023-02-28T01:19:27;4.30;99.90
14723;DHT22;7452;55.594;12.986;2023-02-28T01:21:55;4.30;99.90
14723;DHT22;7452;55.594;12.986;2023-02-28T01:24:22;4.20;99.90
14723;DHT22;7452;55.594;12.986;2023-02-28T01:26:51;4.30;99.90
14723;DHT22;7452;55.594;12.986;2023-02-28T01:29:20;4.10;99.90
14723;DHT22;7452;55.594;12.986;2023-02-28T01:31:50;4.00;99.90
14723;DHT22;7452;55.594;12.986;2023-02-28T01:34:19;3.90;99.90
14723;DHT22;7452;55.594;12.986;2023-02-28T01:36:47;3.80;99.90
14723;DHT22;7452;55.594;12.986;2023-02-28T01:39:15;3.80;99.90
14723;DHT22;7452;55.594;12.986;2023-02-28T01:41:48;3.60;99.90
14723;DHT22;7452;55.594;12.986;2023-02-28T01:47:22;3.40;99.90
14723;DHT22;7452;55.594;12.986;2023-02-28T01:49:51;3.40;99.90
14723;DHT22;7452;55.594;12.986;2023-02-28T01:52:19;3.30;99.90
14723;DHT22;7452;55.594;12.986;2023-02-28T01:54:50;3.30;99.90
14723;DHT22;7452;55.594;12.986;2023-02-28T01:57:21;3.20;99.90
14723;DHT22;7452;55.594;12.986;2023-02-28T01:59:52;3.20;99.90
14723;DHT22;7452;55.594;12.986;2023-02-28T02:02:24;3.20;99.90
14723;DHT22;7452;55.594;12.986;2023-02-28T02:04:55;3.20;99.90
14723;DHT22;7452;55.594;12.986;2023-02-28T02:07:24;3.20;99.90
14723;DHT22;7452;55.594;12.986;2023-02-28T02:10:00;3.10;99.90
14723;DHT22;7452;55.594;12.986;2023-02-28T02:12:36;3.20;99.90
14723;DHT22;7452;55.594;12.986;2023-02-28T02:15:08;3.00;99.90
14723;DHT22;7452;55.594;12.986;2023-02-28T02:17:45;3.00;99.90
14723;DHT22;7452;55.594;12.986;2023-02-28T02:20:32;3.00;99.90
14723;DHT22;7452;55.594;12.986;2023-02-28T02:33:03;2.90;99.90
14723;DHT22;7452;55.594;12.986;2023-02-28T02:35:40;2.80;99.90
14723;DHT22;7452;55.594;12.986;2023-02-28T02:38:12;2.80;99.90
14723;DHT22;7452;55.594;12.986;2023-02-28T02:40:48;2.80;99.90
14723;DHT22;7452;55.594;12.986;2023-02-28T02:43:20;2.70;99.90
14723;DHT22;7452;55.594;12.986;2023-02-28T02:45:54;2.60;99.90
14723;DHT22;7452;55.594;12.986;2023-02-28T02:48:26;2.70;99.90
14723;DHT22;7452;55.594;12.986;2023-02-28T02:50:59;2.60;99.90
14723;DHT22;7452;55.594;12.986;2023-02-28T02:53:30;2.60;99.90
14723;DHT22;7452;55.594;12.986;2023-02-28T02:55:58;2.60;99.90
14723;DHT22;7452;55.594;12.986;2023-02-28T02:58:29;2.50;99.90
14723;DHT22;7452;55.594;12.986;2023-02-28T03:00:59;2.50;99.90
14723;DHT22;7452;55.594;12.986;2023-02-28T03:03:31;2.50;99.90
14723;DHT22;7452;55.594;12.986;2023-02-28T03:06:02;2.60;99.90
14723;DHT22;7452;55.594;12.986;2023-02-28T03:08:34;2.50;99.90
14723;DHT22;7452;55.594;12.986;2023-02-28T03:11:05;2.50;99.90
14723;DHT22;7452;55.594;12.986;2023-02-28T03:16:51;2.40;99.90
14723;DHT22;7452;55.594;12.986;2023-02-28T03:19:34;2.30;99.90
14723;DHT22;7452;55.594;12.986;2023-02-28T03:22:15;2.30;99.90
14723;DHT22;7452;55.594;12.986;2023-02-28T03:24:50;2.30;99.90
14723;DHT22;7452;55.594;12.986;2023-02-28T03:27:25;2.20;99.90
14723;DHT22;7452;55.594;12.986;2023-02-28T03:30:01;2.20;99.90
14723;DHT22;7452;55.594;12.986;2023-02-28T03:32:35;2.10;99.90
14723;DHT22;7452;55.594;12.986;2023-02-28T03:35:09;2.10;99.90
14723;DHT22;7452;55.594;12.986;2023-02-28T03:37:42;2.10;99.90
14723;DHT22;7452;55.594;12.986;2023-02-28T03:40:15;2.10;99.90
14723;DHT22;7452;55.594;12.986;2023-02-28T03:42:46;2.20;99.90
14723;DHT22;7452;55.594;12.986;2023-02-28T03:45:17;2.10;99.90
14723;DHT22;7452;55.594;12.986;2023-02-28T03:47:52;2.10;99.90
14723;DHT22;7452;55.594;12.986;2023-02-28T03:50:23;2.10;99.90
14723;DHT22;7452;55.594;12.986;2023-02-28T03:52:58;2.20;99.90
14723;DHT22;7452;55.594;12.986;2023-02-28T03:55:33;2.10;99.90
14723;DHT22;7452;55.594;12.986;2023-02-28T03:58:10;2.10;99.90
14723;DHT22;7452;55.594;12.986;2023-02-28T04:00:43;2.20;99.90
14723;DHT22;7452;55.594;12.986;2023-02-28T04:03:11;2.00;99.90
14723;DHT22;7452;55.594;12.986;2023-02-28T04:05:50;2.00;99.90
14723;DHT22;7452;55.594;12.986;2023-02-28T04:08:20;2.00;99.90
14723;DHT22;7452;55.594;12.986;2023-02-28T04:10:51;1.90;99.90
14723;DHT22;7452;55.594;12.986;2023-02-28T04:13:20;1.90;99.90
14723;DHT22;7452;55.594;12.986;2023-02-28T04:15:48;1.90;99.90
14723;DHT22;7452;55.594;12.986;2023-02-28T04:18:19;1.90;99.90
14723;DHT22;7452;55.594;12.986;2023-02-28T04:20:46;1.90;99.90
14723;DHT22;7452;55.594;12.986;2023-02-28T04:23:16;1.90;99.90
14723;DHT22;7452;55.594;12.986;2023-02-28T04:25:45;1.90;99.90
14723;DHT22;7452;55.594;12.986;2023-02-28T04:28:13;1.90;99.90
14723;DHT22;7452;55.594;12.986;2023-02-28T04:30:42;1.90;99.90
14723;DHT22;7452;55.594;12.986;2023-02-28T04:33:14;1.90;99.90
14723;DHT22;7452;55.594;12.986;2023-02-28T04:35:42;1.90;99.90
14723;DHT22;7452;55.594;12.986;2023-02-28T04:38:09;1.80;99.90
14723;DHT22;7452;55.594;12.986;2023-02-28T04:40:38;1.90;99.90
14723;DHT22;7452;55.594;12.986;2023-02-28T04:43:08;1.90;99.90
14723;DHT22;7452;55.594;12.986;2023-02-28T04:45:38;1.90;99.90
14723;DHT22;7452;55.594;12.986;2023-02-28T04:48:05;1.80;99.90
14723;DHT22;7452;55.594;12.986;2023-02-28T04:50:32;1.80;99.90
14723;DHT22;7452;55.594;12.986;2023-02-28T04:53:00;1.90;99.90
14723;DHT22;7452;55.594;12.986;2023-02-28T04:55:27;1.80;99.90
14723;DHT22;7452;55.594;12.986;2023-02-28T04:57:55;1.90;99.90
14723;DHT22;7452;55.594;12.986;2023-02-28T05:00:26;1.90;99.90
14723;DHT22;7452;55.594;12.986;2023-02-28T05:02:55;1.90;99.90
14723;DHT22;7452;55.594;12.986;2023-02-28T05:05:22;1.90;99.90
14723;DHT22;7452;55.594;12.986;2023-02-28T05:07:50;1.90;99.90
14723;DHT22;7452;55.594;12.986;2023-02-28T05:10:19;1.80;99.90
14723;DHT22;7452;55.594;12.986;2023-02-28T05:12:47;1.80;99.90
14723;DHT22;7452;55.594;12.986;2023-02-28T05:15:15;1.80;99.90
14723;DHT22;7452;55.594;12.986;2023-02-28T05:17:46;1.70;99.90
14723;DHT22;7452;55.594;12.986;2023-02-28T05:20:21;1.70;99.90
14723;DHT22;7452;55.594;12.986;2023-02-28T05:22:49;1.70;99.90
14723;DHT22;7452;55.594;12.986;2023-02-28T05:25:21;1.60;99.90
14723;DHT22;7452;55.594;12.986;2023-02-28T05:27:48;1.60;99.90
14723;DHT22;7452;55.594;12.986;2023-02-28T05:30:16;1.60;99.90
14723;DHT22;7452;55.594;12.986;2023-02-28T05:32:51;1.70;99.90
14723;DHT22;7452;55.594;12.986;2023-02-28T05:35:18;1.60;99.90
14723;DHT22;7452;55.594;12.986;2023-02-28T05:37:46;1.60;99.90
14723;DHT22;7452;55.594;12.986;2023-02-28T05:40:13;1.60;99.90
14723;DHT22;7452;55.594;12.986;2023-02-28T05:42:45;1.60;99.90
14723;DHT22;7452;55.594;12.986;2023-02-28T05:45:13;1.50;99.90
14723;DHT22;7452;55.594;12.986;2023-02-28T05:47:42;1.60;99.90
14723;DHT22;7452;55.594;12.986;2023-02-28T05:50:20;1.60;99.90
14723;DHT22;7452;55.594;12.986;2023-02-28T05:52:49;1.50;99.90
14723;DHT22;7452;55.594;12.986;2023-02-28T05:55:17;1.60;99.90
14723;DHT22;7452;55.594;12.986;2023-02-28T05:57:45;1.50;99.90
14723;DHT22;7452;55.594;12.986;2023-02-28T06:00:14;1.70;99.90
14723;DHT22;7452;55.594;12.986;2023-02-28T06:02:43;1.60;99.90
14723;DHT22;7452;55.594;12.986;2023-02-28T06:05:15;1.60;99.90
14723;DHT22;7452;55.594;12.986;2023-02-28T06:07:43;1.70;99.90
14723;DHT22;7452;55.594;12.986;2023-02-28T06:10:11;1.70;99.90
14723;DHT22;7452;55.594;12.986;2023-02-28T06:12:38;1.70;99.90
14723;DHT22;7452;55.594;12.986;2023-02-28T06:15:12;1.70;99.90
14723;DHT22;7452;55.594;12.986;2023-02-28T06:17:43;1.60;99.90
14723;DHT22;7452;55.594;12.986;2023-02-28T06:20:15;1.70;99.90
14723;DHT22;7452;55.594;12.986;2023-02-28T06:22:42;1.50;99.90
14723;DHT22;7452;55.594;12.986;2023-02-28T06:25:12;1.40;99.90
14723;DHT22;7452;55.594;12.986;2023-02-28T06:27:41;1.30;99.90
14723;DHT22;7452;55.594;12.986;2023-02-28T06:30:09;1.40;99.90
14723;DHT22;7452;55.594;12.986;2023-02-28T06:32:37;1.60;99.90
14723;DHT22;7452;55.594;12.986;2023-02-28T06:35:05;1.60;99.90
14723;DHT22;7452;55.594;12.986;2023-02-28T06:37:37;1.70;99.90
14723;DHT22;7452;55.594;12.986;2023-02-28T06:40:05;1.80;99.90
14723;DHT22;7452;55.594;12.986;2023-02-28T06:42:35;1.70;99.90
14723;DHT22;7452;55.594;12.986;2023-02-28T06:45:07;1.70;99.90
14723;DHT22;7452;55.594;12.986;2023-02-28T06:47:36;1.70;99.90
14723;DHT22;7452;55.594;12.986;2023-02-28T06:50:08;1.70;99.90
14723;DHT22;7452;55.594;12.986;2023-02-28T06:52:37;1.70;99.90
14723;DHT22;7452;55.594;12.986;2023-02-28T06:55:05;1.90;99.90
14723;DHT22;7452;55.594;12.986;2023-02-28T06:57:34;1.70;99.90
14723;DHT22;7452;55.594;12.986;2023-02-28T07:00:05;1.90;99.90
14723;DHT22;7452;55.594;12.986;2023-02-28T07:02:36;1.70;99.90
14723;DHT22;7452;55.594;12.986;2023-02-28T07:05:08;1.80;99.90
14723;DHT22;7452;55.594;12.986;2023-02-28T07:07:38;1.90;99.90
14723;DHT22;7452;55.594;12.986;2023-02-28T07:10:10;2.00;99.90
14723;DHT22;7452;55.594;12.986;2023-02-28T07:12:39;2.10;99.90
14723;DHT22;7452;55.594;12.986;2023-02-28T07:15:09;2.20;99.90
14723;DHT22;7452;55.594;12.986;2023-02-28T07:17:37;2.20;99.90
14723;DHT22;7452;55.594;12.986;2023-02-28T07:20:09;2.30;99.90
14723;DHT22;7452;55.594;12.986;2023-02-28T07:22:42;2.40;99.90
14723;DHT22;7452;55.594;12.986;2023-02-28T07:25:21;2.50;99.90
14723;DHT22;7452;55.594;12.986;2023-02-28T07:27:48;2.50;99.90
14723;DHT22;7452;55.594;12.986;2023-02-28T07:30:18;2.40;99.90
14723;DHT22;7452;55.594;12.986;2023-02-28T07:32:58;2.50;99.90
14723;DHT22;7452;55.594;12.986;2023-02-28T07:35:26;2.60;99.90
14723;DHT22;7452;55.594;12.986;2023-02-28T07:37:57;2.50;99.90
14723;DHT22;7452;55.594;12.986;2023-02-28T07:40:28;2.60;99.90
14723;DHT22;7452;55.594;12.986;2023-02-28T07:42:56;2.50;99.90
14723;DHT22;7452;55.594;12.986;2023-02-28T07:45:32;2.70;99.90
14723;DHT22;7452;55.594;12.986;2023-02-28T07:48:01;2.70;99.90
14723;DHT22;7452;55.594;12.986;2023-02-28T07:50:32;2.80;99.90
14723;DHT22;7452;55.594;12.986;2023-02-28T07:53:02;2.70;99.90
14723;DHT22;7452;55.594;12.986;2023-02-28T07:55:30;2.80;99.90
14723;DHT22;7452;55.594;12.986;2023-02-28T07:57:57;2.90;99.90
14723;DHT22;7452;55.594;12.986;2023-02-28T08:00:26;2.90;99.90
14723;DHT22;7452;55.594;12.986;2023-02-28T08:02:55;2.80;99.90
14723;DHT22;7452;55.594;12.986;2023-02-28T08:05:23;2.90;99.90
14723;DHT22;7452;55.594;12.986;2023-02-28T08:07:50;3.00;99.90
14723;DHT22;7452;55.594;12.986;2023-02-28T08:10:20;3.10;99.90
14723;DHT22;7452;55.594;12.986;2023-02-28T08:12:47;3.20;99.90
14723;DHT22;7452;55.594;12.986;2023-02-28T08:15:17;3.10;99.90
14723;DHT22;7452;55.594;12.986;2023-02-28T08:17:44;3.30;99.90
14723;DHT22;7452;55.594;12.986;2023-02-28T08:20:12;3.30;99.90
14723;DHT22;7452;55.594;12.986;2023-02-28T08:22:41;3.50;99.90
14723;DHT22;7452;55.594;12.986;2023-02-28T08:25:10;3.50;99.90
14723;DHT22;7452;55.594;12.986;2023-02-28T08:27:42;3.50;99.90
14723;DHT22;7452;55.594;12.986;2023-02-28T08:30:22;3.50;99.90
14723;DHT22;7452;55.594;12.986;2023-02-28T08:32:49;3.50;99.90
14723;DHT22;7452;55.594;12.986;2023-02-28T08:35:21;3.60;99.90
14723;DHT22;7452;55.594;12.986;2023-02-28T08:37:55;3.90;99.90
14723;DHT22;7452;55.594;12.986;2023-02-28T08:40:24;3.80;99.90
14723;DHT22;7452;55.594;12.986;2023-02-28T08:42:57;3.90;99.90
14723;DHT22;7452;55.594;12.986;2023-02-28T08:45:26;4.10;99.90
14723;DHT22;7452;55.594;12.986;2023-02-28T08:47:54;4.10;99.90
14723;DHT22;7452;55.594;12.986;2023-02-28T08:50:26;4.00;99.90
14723;DHT22;7452;55.594;12.986;2023-02-28T08:52:55;4.10;99.90
14723;DHT22;7452;55.594;12.986;2023-02-28T08:55:24;4.20;99.90
14723;DHT22;7452;55.594;12.986;2023-02-28T08:57:53;4.30;99.90
14723;DHT22;7452;55.594;12.986;2023-02-28T09:00:27;4.30;99.90
14723;DHT22;7452;55.594;12.986;2023-02-28T09:03:02;4.50;99.90
14723;DHT22;7452;55.594;12.986;2023-02-28T09:05:30;4.70;99.90
14723;DHT22;7452;55.594;12.986;2023-02-28T09:08:01;4.90;99.90
14723;DHT22;7452;55.594;12.986;2023-02-28T09:10:28;5.10;99.90
14723;DHT22;7452;55.594;12.986;2023-02-28T09:12:57;5.30;99.90
14723;DHT22;7452;55.594;12.986;2023-02-28T09:15:29;5.40;99.90
14723;DHT22;7452;55.594;12.986;2023-02-28T09:17:59;5.60;99.90
14723;DHT22;7452;55.594;12.986;2023-02-28T09:20:29;5.70;99.90
14723;DHT22;7452;55.594;12.986;2023-02-28T09:22:58;5.90;99.90
14723;DHT22;7452;55.594;12.986;2023-02-28T09:25:27;5.90;99.90
14723;DHT22;7452;55.594;12.986;2023-02-28T09:27:54;6.00;99.90
14723;DHT22;7452;55.594;12.986;2023-02-28T09:30:22;6.00;99.90
14723;DHT22;7452;55.594;12.986;2023-02-28T09:32:53;6.00;99.90
14723;DHT22;7452;55.594;12.986;2023-02-28T09:35:22;6.00;99.90
14723;DHT22;7452;55.594;12.986;2023-02-28T09:37:52;6.20;99.90
14723;DHT22;7452;55.594;12.986;2023-02-28T09:40:24;6.20;99.90
14723;DHT22;7452;55.594;12.986;2023-02-28T09:42:53;6.30;99.90
14723;DHT22;7452;55.594;12.986;2023-02-28T09:45:24;6.50;99.90
14723;DHT22;7452;55.594;12.986;2023-02-28T09:47:58;6.60;99.90
14723;DHT22;7452;55.594;12.986;2023-02-28T09:50:33;6.60;99.90
14723;DHT22;7452;55.594;12.986;2023-02-28T09:53:09;6.80;99.90
14723;DHT22;7452;55.594;12.986;2023-02-28T09:55:43;7.20;99.90
14723;DHT22;7452;55.594;12.986;2023-02-28T09:58:18;7.40;99.90
14723;DHT22;7452;55.594;12.986;2023-02-28T10:00:55;7.70;99.90
14723;DHT22;7452;55.594;12.986;2023-02-28T10:03:30;7.70;99.90
14723;DHT22;7452;55.594;12.986;2023-02-28T10:06:06;7.90;99.90
14723;DHT22;7452;55.594;12.986;2023-02-28T10:08:40;8.00;99.90
14723;DHT22;7452;55.594;12.986;2023-02-28T10:11:14;7.90;99.90
14723;DHT22;7452;55.594;12.986;2023-02-28T10:13:53;7.80;99.90
14723;DHT22;7452;55.594;12.986;2023-02-28T10:16:31;7.90;99.90
14723;DHT22;7452;55.594;12.986;2023-02-28T10:19:04;8.10;99.90
14723;DHT22;7452;55.594;12.986;2023-02-28T10:21:37;8.30;99.90
14723;DHT22;7452;55.594;12.986;2023-02-28T10:24:19;8.60;99.90
14723;DHT22;7452;55.594;12.986;2023-02-28T10:26:48;8.80;99.90
14723;DHT22;7452;55.594;12.986;2023-02-28T10:29:18;8.90;99.90
14723;DHT22;7452;55.594;12.986;2023-02-28T10:31:48;9.10;99.90
14723;DHT22;7452;55.594;12.986;2023-02-28T10:34:24;9.20;99.90
14723;DHT22;7452;55.594;12.986;2023-02-28T10:36:52;9.90;99.90
14723;DHT22;7452;55.594;12.986;2023-02-28T10:39:38;10.80;99.90
14723;DHT22;7452;55.594;12.986;2023-02-28T10:42:20;11.80;99.90
14723;DHT22;7452;55.594;12.986;2023-02-28T10:45:06;12.70;99.90
14723;DHT22;7452;55.594;12.986;2023-02-28T10:47:35;13.90;99.90
14723;DHT22;7452;55.594;12.986;2023-02-28T10:50:08;14.90;99.90
14723;DHT22;7452;55.594;12.986;2023-02-28T10:52:53;15.70;99.90
14723;DHT22;7452;55.594;12.986;2023-02-28T10:55:22;16.10;99.90
14723;DHT22;7452;55.594;12.986;2023-02-28T10:57:52;16.60;99.90
14723;DHT22;7452;55.594;12.986;2023-02-28T11:02:52;16.50;99.90
14723;DHT22;7452;55.594;12.986;2023-02-28T11:05:27;16.70;99.90
14723;DHT22;7452;55.594;12.986;2023-02-28T11:08:05;16.70;99.90
14723;DHT22;7452;55.594;12.986;2023-02-28T11:10:34;17.10;99.90
14723;DHT22;7452;55.594;12.986;2023-02-28T11:13:03;18.40;99.90
14723;DHT22;7452;55.594;12.986;2023-02-28T11:15:32;18.60;99.90
14723;DHT22;7452;55.594;12.986;2023-02-28T11:18:23;19.10;99.90
14723;DHT22;7452;55.594;12.986;2023-02-28T11:20:57;19.70;99.90
14723;DHT22;7452;55.594;12.986;2023-02-28T11:23:27;18.90;99.90
14723;DHT22;7452;55.594;12.986;2023-02-28T11:26:00;18.80;99.90
14723;DHT22;7452;55.594;12.986;2023-02-28T11:28:29;19.40;99.90
14723;DHT22;7452;55.594;12.986;2023-02-28T11:33:52;19.20;99.90
14723;DHT22;7452;55.594;12.986;2023-02-28T11:36:36;19.10;99.90
14723;DHT22;7452;55.594;12.986;2023-02-28T11:39:11;19.30;99.90
14723;DHT22;7452;55.594;12.986;2023-02-28T11:42:03;19.10;99.90
14723;DHT22;7452;55.594;12.986;2023-02-28T11:44:48;18.80;99.90
14723;DHT22;7452;55.594;12.986;2023-02-28T11:47:28;18.90;99.90
14723;DHT22;7452;55.594;12.986;2023-02-28T11:50:08;18.70;99.90
14723;DHT22;7452;55.594;12.986;2023-02-28T11:52:47;17.90;99.90
14723;DHT22;7452;55.594;12.986;2023-02-28T11:55:26;18.70;99.90
14723;DHT22;7452;55.594;12.986;2023-02-28T11:58:13;18.50;99.90
14723;DHT22;7452;55.594;12.986;2023-02-28T12:01:01;18.50;99.90
14723;DHT22;7452;55.594;12.986;2023-02-28T12:03:37;19.60;99.90
14723;DHT22;7452;55.594;12.986;2023-02-28T12:06:17;20.30;99.90
14723;DHT22;7452;55.594;12.986;2023-02-28T12:09:02;20.90;99.90
14723;DHT22;7452;55.594;12.986;2023-02-28T12:11:45;21.40;99.90
14723;DHT22;7452;55.594;12.986;2023-02-28T12:14:46;21.60;99.90
14723;DHT22;7452;55.594;12.986;2023-02-28T12:17:38;21.80;99.90
14723;DHT22;7452;55.594;12.986;2023-02-28T12:20:33;22.20;99.90
14723;DHT22;7452;55.594;12.986;2023-02-28T12:23:33;22.70;99.90
14723;DHT22;7452;55.594;12.986;2023-02-28T12:26:30;22.90;99.90
14723;DHT22;7452;55.594;12.986;2023-02-28T12:29:04;22.20;99.90
14723;DHT22;7452;55.594;12.986;2023-02-28T12:31:38;21.90;99.90
14723;DHT22;7452;55.594;12.986;2023-02-28T12:34:25;19.80;99.90
14723;DHT22;7452;55.594;12.986;2023-02-28T12:37:00;19.10;99.90
14723;DHT22;7452;55.594;12.986;2023-02-28T12:39:33;19.30;99.90
14723;DHT22;7452;55.594;12.986;2023-02-28T12:42:09;18.90;99.90
14723;DHT22;7452;55.594;12.986;2023-02-28T12:44:51;18.70;99.90
14723;DHT22;7452;55.594;12.986;2023-02-28T12:47:32;19.40;99.90
14723;DHT22;7452;55.594;12.986;2023-02-28T12:50:04;20.10;99.90
14723;DHT22;7452;55.594;12.986;2023-02-28T12:52:46;19.90;99.90
14723;DHT22;7452;55.594;12.986;2023-02-28T12:55:18;19.90;99.90
14723;DHT22;7452;55.594;12.986;2023-02-28T12:57:53;20.50;99.90
14723;DHT22;7452;55.594;12.986;2023-02-28T13:00:26;20.90;99.90
14723;DHT22;7452;55.594;12.986;2023-02-28T13:03:24;21.40;99.90
14723;DHT22;7452;55.594;12.986;2023-02-28T13:09:19;19.20;99.90
14723;DHT22;7452;55.594;12.986;2023-02-28T13:11:48;18.70;99.90
14723;DHT22;7452;55.594;12.986;2023-02-28T13:14:36;17.80;99.90
14723;DHT22;7452;55.594;12.986;2023-02-28T13:17:18;18.30;99.90
14723;DHT22;7452;55.594;12.986;2023-02-28T13:19:57;18.30;99.90
14723;DHT22;7452;55.594;12.986;2023-02-28T13:22:44;17.90;99.90
14723;DHT22;7452;55.594;12.986;2023-02-28T13:35:18;17.10;99.90
14723;DHT22;7452;55.594;12.986;2023-02-28T13:44:24;19.10;99.90
14723;DHT22;7452;55.594;12.986;2023-02-28T13:47:20;19.20;99.90
14723;DHT22;7452;55.594;12.986;2023-02-28T13:50:24;20.40;99.90
14723;DHT22;7452;55.594;12.986;2023-02-28T13:55:57;21.50;99.90
14723;DHT22;7452;55.594;12.986;2023-02-28T13:58:41;21.90;99.90
14723;DHT22;7452;55.594;12.986;2023-02-28T14:04:46;22.30;99.90
14723;DHT22;7452;55.594;12.986;2023-02-28T14:07:22;22.30;99.90
14723;DHT22;7452;55.594;12.986;2023-02-28T14:10:02;21.70;99.90
14723;DHT22;7452;55.594;12.986;2023-02-28T14:13:11;21.30;99.90
14723;DHT22;7452;55.594;12.986;2023-02-28T14:15:56;21.20;99.90
14723;DHT22;7452;55.594;12.986;2023-02-28T14:18:31;21.60;99.90
14723;DHT22;7452;55.594;12.986;2023-02-28T14:21:09;21.20;99.90
14723;DHT22;7452;55.594;12.986;2023-02-28T14:27:11;21.20;99.90
14723;DHT22;7452;55.594;12.986;2023-02-28T14:33:18;19.40;99.90
14723;DHT22;7452;55.594;12.986;2023-02-28T14:36:04;18.20;99.90
14723;DHT22;7452;55.594;12.986;2023-02-28T14:38:36;18.00;99.90
14723;DHT22;7452;55.594;12.986;2023-02-28T14:41:16;17.70;99.90
14723;DHT22;7452;55.594;12.986;2023-02-28T14:43:54;17.90;99.90
14723;DHT22;7452;55.594;12.986;2023-02-28T14:46:26;18.20;99.90
14723;DHT22;7452;55.594;12.986;2023-02-28T14:49:01;18.10;99.90
14723;DHT22;7452;55.594;12.986;2023-02-28T14:51:30;18.60;99.90
14723;DHT22;7452;55.594;12.986;2023-02-28T14:54:00;17.50;99.90
14723;DHT22;7452;55.594;12.986;2023-02-28T14:56:35;16.10;99.90
14723;DHT22;7452;55.594;12.986;2023-02-28T14:59:04;15.70;99.90
14723;DHT22;7452;55.594;12.986;2023-02-28T15:01:35;15.90;99.90
14723;DHT22;7452;55.594;12.986;2023-02-28T15:04:06;15.80;99.90
14723;DHT22;7452;55.594;12.986;2023-02-28T15:06:37;16.30;99.90
14723;DHT22;7452;55.594;12.986;2023-02-28T15:09:13;16.00;99.90
14723;DHT22;7452;55.594;12.986;2023-02-28T15:11:46;15.70;99.90
14723;DHT22;7452;55.594;12.986;2023-02-28T15:14:17;15.00;99.90
14723;DHT22;7452;55.594;12.986;2023-02-28T15:16:48;14.70;99.90
14723;DHT22;7452;55.594;12.986;2023-02-28T15:19:20;14.80;99.90
14723;DHT22;7452;55.594;12.986;2023-02-28T15:21:51;14.60;99.90
14723;DHT22;7452;55.594;12.986;2023-02-28T15:24:21;14.00;99.90
14723;DHT22;7452;55.594;12.986;2023-02-28T15:26:57;13.60;99.90
14723;DHT22;7452;55.594;12.986;2023-02-28T15:29:26;13.60;99.90
14723;DHT22;7452;55.594;12.986;2023-02-28T15:31:56;13.00;99.90
14723;DHT22;7452;55.594;12.986;2023-02-28T15:34:29;12.80;99.90
14723;DHT22;7452;55.594;12.986;2023-02-28T15:37:00;12.40;99.90
14723;DHT22;7452;55.594;12.986;2023-02-28T15:39:28;12.10;99.90
14723;DHT22;7452;55.594;12.986;2023-02-28T15:44:56;11.90;99.90
14723;DHT22;7452;55.594;12.986;2023-02-28T15:47:47;11.20;99.90
14723;DHT22;7452;55.594;12.986;2023-02-28T15:50:15;10.80;99.90
14723;DHT22;7452;55.594;12.986;2023-02-28T15:52:44;10.50;99.90
14723;DHT22;7452;55.594;12.986;2023-02-28T15:55:19;10.40;99.90
14723;DHT22;7452;55.594;12.986;2023-02-28T15:57:49;10.10;99.90
14723;DHT22;7452;55.594;12.986;2023-02-28T16:00:23;9.90;99.90
14723;DHT22;7452;55.594;12.986;2023-02-28T16:02:51;9.80;99.90
14723;DHT22;7452;55.594;12.986;2023-02-28T16:05:23;9.50;99.90
14723;DHT22;7452;55.594;12.986;2023-02-28T16:07:58;9.30;99.90
14723;DHT22;7452;55.594;12.986;2023-02-28T16:10:29;9.20;99.90
14723;DHT22;7452;55.594;12.986;2023-02-28T16:13:04;9.00;99.90
14723;DHT22;7452;55.594;12.986;2023-02-28T16:15:37;8.80;99.90
14723;DHT22;7452;55.594;12.986;2023-02-28T16:18:11;8.60;99.90
14723;DHT22;7452;55.594;12.986;2023-02-28T16:20:40;8.50;99.90
14723;DHT22;7452;55.594;12.986;2023-02-28T16:23:11;8.40;99.90
14723;DHT22;7452;55.594;12.986;2023-02-28T16:25:49;8.40;99.90
14723;DHT22;7452;55.594;12.986;2023-02-28T16:28:19;8.30;99.90
14723;DHT22;7452;55.594;12.986;2023-02-28T16:30:51;8.30;99.90
14723;DHT22;7452;55.594;12.986;2023-02-28T16:33:19;8.20;99.90
14723;DHT22;7452;55.594;12.986;2023-02-28T16:35:46;8.00;99.90
14723;DHT22;7452;55.594;12.986;2023-02-28T16:38:13;8.00;99.90
14723;DHT22;7452;55.594;12.986;2023-02-28T16:40:40;7.90;99.90
14723;DHT22;7452;55.594;12.986;2023-02-28T16:43:15;7.90;99.90
14723;DHT22;7452;55.594;12.986;2023-02-28T16:45:44;7.80;99.90
14723;DHT22;7452;55.594;12.986;2023-02-28T16:48:18;7.80;99.90
14723;DHT22;7452;55.594;12.986;2023-02-28T16:50:48;7.70;99.90
14723;DHT22;7452;55.594;12.986;2023-02-28T16:53:18;7.70;99.90
14723;DHT22;7452;55.594;12.986;2023-02-28T16:55:45;7.60;99.90
14723;DHT22;7452;55.594;12.986;2023-02-28T16:58:22;7.50;99.90
14723;DHT22;7452;55.594;12.986;2023-02-28T17:00:51;7.50;99.90
14723;DHT22;7452;55.594;12.986;2023-02-28T17:03:24;7.40;99.90
14723;DHT22;7452;55.594;12.986;2023-02-28T17:05:53;7.30;99.90
14723;DHT22;7452;55.594;12.986;2023-02-28T17:08:20;7.20;99.90
14723;DHT22;7452;55.594;12.986;2023-02-28T17:10:48;7.20;99.90
14723;DHT22;7452;55.594;12.986;2023-02-28T17:13:15;7.20;99.90
14723;DHT22;7452;55.594;12.986;2023-02-28T17:15:46;7.10;99.90